Time;durP1;ratioP1;P1;durP2;ratioP2;P2;SDS_P1;SDS_P2;PMS_P1;PMS_P2;Temp;Humidity;BMP_temperature;BMP_pressure;BME280_temperature;BME280_humidity;BME280_pressure;Samples;Min_cycle;Max_cycle;Signal;HPM_P1;HPM_P2
2022/05/18 00:00:57;;;;;;;16.00;6.47;;;24.10;63.10;;;;;;5038906;28;20422;-62
2022/05/18 00:03:25;;;;;;;18.15;6.55;;;24.10;63.00;;;;;;5022225;28;20131;-62
2022/05/18 00:05:51;;;;;;;11.68;5.75;;;24.10;63.10;;;;;;5022012;28;20021;-60
2022/05/18 00:08:17;;;;;;;12.63;6.50;;;24.10;63.10;;;;;;5038275;28;20028;-63
2022/05/18 00:10:43;;;;;;;15.32;6.35;;;24.00;63.20;;;;;;5022202;28;20521;-61
2022/05/18 00:13:09;;;;;;;13.98;5.90;;;24.00;63.30;;;;;;5019800;28;20503;-63
2022/05/18 00:15:35;;;;;;;17.35;5.90;;;24.00;63.30;;;;;;5036453;28;20021;-62
2022/05/18 00:18:00;;;;;;;18.60;6.65;;;23.90;64.10;;;;;;5037177;28;20025;-63
2022/05/18 00:20:27;;;;;;;14.68;5.78;;;23.90;63.40;;;;;;5042988;28;20117;-61
2022/05/18 00:22:54;;;;;;;15.55;6.20;;;23.90;63.50;;;;;;5039880;28;20032;-62
2022/05/18 00:25:22;;;;;;;10.95;5.80;;;23.80;63.50;;;;;;5038702;28;20021;-62
2022/05/18 00:27:48;;;;;;;14.98;6.03;;;23.80;63.60;;;;;;5020714;28;20018;-60
2022/05/18 00:30:15;;;;;;;13.50;6.00;;;23.80;63.80;;;;;;5023473;28;20116;-62
2022/05/18 00:32:40;;;;;;;9.00;5.40;;;23.70;63.70;;;;;;5036743;28;20029;-62
2022/05/18 00:35:07;;;;;;;14.68;5.65;;;23.70;63.90;;;;;;5042233;28;20103;-61
2022/05/18 00:37:32;;;;;;;15.38;5.80;;;23.70;63.90;;;;;;5039427;28;20041;-62
2022/05/18 00:39:58;;;;;;;9.02;5.05;;;23.70;64.00;;;;;;5041648;28;20555;-62
2022/05/18 00:42:25;;;;;;;11.20;5.32;;;23.60;64.00;;;;;;5041637;28;20380;-62
2022/05/18 00:44:50;;;;;;;8.00;4.93;;;23.60;64.10;;;;;;5043969;28;20098;-61
2022/05/18 00:47:16;;;;;;;8.05;5.45;;;23.60;64.20;;;;;;5041746;28;20036;-63
2022/05/18 00:49:45;;;;;;;14.00;4.95;;;23.60;64.30;;;;;;5042582;28;20091;-62
2022/05/18 00:52:12;;;;;;;15.48;5.60;;;23.50;64.20;;;;;;5040949;28;20037;-61
2022/05/18 00:54:37;;;;;;;10.80;5.22;;;23.50;64.40;;;;;;5023225;28;20112;-60
2022/05/18 00:57:07;;;;;;;11.23;4.50;;;23.50;64.50;;;;;;5041616;28;20120;-61
2022/05/18 00:59:50;;;;;;;10.60;4.85;;;23.50;64.60;;;;;;5025105;28;20043;-61
2022/05/18 01:02:15;;;;;;;10.85;4.93;;;23.50;64.70;;;;;;5027514;28;20028;-62
2022/05/18 01:04:41;;;;;;;12.43;5.30;;;23.40;64.80;;;;;;5041950;28;20488;-62
2022/05/18 01:07:13;;;;;;;12.98;4.85;;;23.40;64.80;;;;;;5022189;28;20033;-61
2022/05/18 01:09:40;;;;;;;13.00;5.55;;;23.40;64.90;;;;;;5028130;28;20120;-61
2022/05/18 01:12:07;;;;;;;13.80;5.35;;;23.30;64.90;;;;;;5043820;28;20133;-61
2022/05/18 01:14:37;;;;;;;11.13;5.10;;;23.30;65.10;;;;;;5025331;28;20431;-60
2022/05/18 01:17:03;;;;;;;13.00;5.05;;;23.30;65.20;;;;;;5039721;28;20029;-61
2022/05/18 01:19:36;;;;;;;10.13;5.30;;;23.30;65.30;;;;;;5020155;28;20040;-63
2022/05/18 01:22:09;;;;;;;12.50;4.85;;;23.30;65.30;;;;;;5040266;28;20384;-63
2022/05/18 01:24:55;;;;;;;8.38;4.43;;;23.20;65.30;;;;;;5039623;28;20607;-61
2022/05/18 01:27:21;;;;;;;14.38;4.90;;;23.20;65.40;;;;;;5031100;28;20037;-61
2022/05/18 01:29:46;;;;;;;10.07;4.28;;;23.20;65.50;;;;;;5037197;28;20069;-60
2022/05/18 01:32:14;;;;;;;13.25;5.18;;;23.10;65.60;;;;;;5040745;28;20063;-62
2022/05/18 01:34:42;;;;;;;13.68;4.95;;;23.10;65.60;;;;;;5022458;28;20040;-61
2022/05/18 01:37:11;;;;;;;9.60;4.68;;;23.10;65.70;;;;;;5038943;28;20169;-62
2022/05/18 01:39:45;;;;;;;10.43;4.78;;;23.10;65.70;;;;;;5025785;28;20029;-62
2022/05/18 01:42:27;;;;;;;9.23;4.67;;;23.10;65.70;;;;;;5038480;28;20029;-60
2022/05/18 01:44:52;;;;;;;6.60;4.28;;;23.00;65.80;;;;;;5037724;28;20106;-61
2022/05/18 01:47:18;;;;;;;11.23;4.78;;;22.90;65.80;;;;;;5039178;28;20025;-62
2022/05/18 01:49:44;;;;;;;8.48;4.68;;;22.90;65.90;;;;;;5040147;28;20518;-60
2022/05/18 01:52:10;;;;;;;9.15;4.03;;;22.90;65.90;;;;;;5041295;28;20025;-60
2022/05/18 01:54:37;;;;;;;6.90;4.50;;;22.90;66.10;;;;;;5025462;28;20582;-61
2022/05/18 01:57:03;;;;;;;7.78;4.05;;;22.90;66.20;;;;;;5039449;28;20060;-62
2022/05/18 01:59:28;;;;;;;8.10;4.50;;;22.80;66.30;;;;;;5023685;28;20021;-62
2022/05/18 02:01:54;;;;;;;10.90;4.28;;;22.80;66.40;;;;;;5038872;28;20124;-62
2022/05/18 02:04:19;;;;;;;6.28;3.88;;;22.80;66.40;;;;;;5042071;28;20055;-63
2022/05/18 02:06:45;;;;;;;5.63;3.90;;;22.70;66.40;;;;;;5039594;28;20492;-60
2022/05/18 02:09:11;;;;;;;7.82;4.13;;;22.70;66.40;;;;;;5039773;28;20664;-60
2022/05/18 02:11:36;;;;;;;7.55;4.45;;;22.70;66.50;;;;;;5041354;28;20044;-61
2022/05/18 02:14:02;;;;;;;7.95;3.58;;;22.70;66.60;;;;;;5018521;28;20036;-62
2022/05/18 02:16:27;;;;;;;7.10;4.10;;;22.60;66.60;;;;;;5039760;28;20025;-62
2022/05/18 02:18:53;;;;;;;9.95;4.65;;;22.60;66.60;;;;;;5041290;28;20065;-63
2022/05/18 02:21:18;;;;;;;8.40;3.80;;;22.60;66.80;;;;;;5041427;28;20044;-62
2022/05/18 02:23:44;;;;;;;7.68;3.92;;;22.60;66.80;;;;;;5037888;28;20042;-63
2022/05/18 02:26:14;;;;;;;6.03;3.70;;;22.50;66.80;;;;;;5036004;28;20041;-61
2022/05/18 02:28:40;;;;;;;7.30;3.40;;;22.50;66.90;;;;;;5041727;28;20036;-60
2022/05/18 02:31:06;;;;;;;5.88;3.50;;;22.50;67.00;;;;;;5022982;28;20033;-61
2022/05/18 02:33:32;;;;;;;6.90;3.72;;;22.50;67.20;;;;;;5041378;28;20052;-62
2022/05/18 02:35:58;;;;;;;6.45;4.30;;;22.50;67.20;;;;;;5022012;28;20060;-62
2022/05/18 02:38:23;;;;;;;7.70;4.22;;;22.40;67.20;;;;;;5040686;28;20028;-60
2022/05/18 02:40:49;;;;;;;6.10;4.10;;;22.40;67.40;;;;;;5043360;28;20745;-61
2022/05/18 02:43:14;;;;;;;6.70;4.47;;;22.40;67.40;;;;;;5023030;28;20037;-61
2022/05/18 02:45:40;;;;;;;6.10;4.07;;;22.30;67.50;;;;;;5033812;28;20481;-61
2022/05/18 02:48:07;;;;;;;8.00;4.63;;;22.40;67.50;;;;;;5040481;28;20029;-63
2022/05/18 02:50:33;;;;;;;10.23;4.00;;;22.30;67.50;;;;;;5035424;28;20037;-62
2022/05/18 02:52:59;;;;;;;8.27;5.05;;;22.30;67.60;;;;;;5039660;28;20074;-62
2022/05/18 02:58:08;;;;;;;7.05;4.68;;;22.20;67.60;;;;;;5035557;28;20443;-61
2022/05/18 03:00:34;;;;;;;8.38;5.47;;;22.20;67.60;;;;;;5038362;28;20033;-60
2022/05/18 03:02:59;;;;;;;10.05;4.82;;;22.20;67.80;;;;;;5033726;28;20095;-62
2022/05/18 03:05:25;;;;;;;9.82;4.80;;;22.20;67.80;;;;;;5040617;28;20044;-61
2022/05/18 03:07:50;;;;;;;9.00;5.00;;;22.20;68.00;;;;;;5038676;28;20079;-62
2022/05/18 03:10:18;;;;;;;10.38;4.80;;;22.10;68.00;;;;;;5042278;28;20040;-62
2022/05/18 03:12:44;;;;;;;10.00;4.28;;;22.10;68.00;;;;;;5022748;28;20021;-61
2022/05/18 03:15:13;;;;;;;10.90;4.45;;;22.10;68.10;;;;;;5039910;28;20025;-60
2022/05/18 03:17:38;;;;;;;8.73;4.47;;;22.10;68.30;;;;;;5037219;28;20423;-61
2022/05/18 03:20:05;;;;;;;14.13;4.95;;;22.10;68.40;;;;;;5042381;28;20025;-61
2022/05/18 03:25:14;;;;;;;14.15;5.00;;;22.00;68.50;;;;;;5039321;28;20048;-60
2022/05/18 03:27:41;;;;;;;14.63;5.50;;;22.00;68.60;;;;;;5022594;28;20029;-60
2022/05/18 03:30:07;;;;;;;13.98;4.88;;;22.00;68.80;;;;;;5019182;28;20040;-61
2022/05/18 03:32:33;;;;;;;13.43;4.70;;;21.90;68.70;;;;;;5036158;28;20169;-60
2022/05/18 03:34:58;;;;;;;12.63;4.80;;;21.90;68.70;;;;;;5040332;28;20482;-60
2022/05/18 03:37:24;;;;;;;13.43;4.82;;;21.90;68.70;;;;;;5036647;28;20028;-62
2022/05/18 03:39:49;;;;;;;10.52;4.65;;;21.90;68.70;;;;;;5040517;28;20029;-61
2022/05/18 03:42:15;;;;;;;10.48;4.65;;;21.90;68.80;;;;;;5038662;28;20048;-62
2022/05/18 03:44:40;;;;;;;11.20;4.65;;;21.80;68.90;;;;;;5037725;28;20119;-63
2022/05/18 03:47:06;;;;;;;10.20;4.20;;;21.80;69.00;;;;;;5038773;28;20025;-62
2022/05/18 03:49:32;;;;;;;10.48;4.80;;;21.80;69.00;;;;;;5040375;28;20119;-62
2022/05/18 03:51:57;;;;;;;9.35;4.10;;;21.80;69.10;;;;;;5036004;28;20115;-59
2022/05/18 03:54:23;;;;;;;8.20;4.32;;;21.80;69.30;;;;;;5038877;28;20033;-62
2022/05/18 03:56:48;;;;;;;15.10;5.00;;;21.80;69.30;;;;;;5039054;28;20028;-62
2022/05/18 03:59:14;;;;;;;13.60;4.40;;;21.70;69.30;;;;;;5038762;28;20152;-61
2022/05/18 04:01:41;;;;;;;8.38;4.43;;;21.70;69.40;;;;;;5040147;28;20452;-63
2022/05/18 04:04:07;;;;;;;10.30;4.35;;;21.70;70.10;;;;;;5039398;28;20056;-61
2022/05/18 04:06:32;;;;;;;14.20;4.45;;;21.70;69.50;;;;;;5038968;28;20044;-62
2022/05/18 04:08:58;;;;;;;20.70;4.45;;;21.60;69.60;;;;;;5020703;28;20341;-61
2022/05/18 04:11:23;;;;;;;8.90;4.25;;;21.60;69.70;;;;;;5036963;28;20067;-61
2022/05/18 04:13:50;;;;;;;8.88;4.32;;;21.60;69.90;;;;;;5036553;28;20112;-61
2022/05/18 04:16:16;;;;;;;12.90;4.25;;;21.60;70.00;;;;;;5041220;28;20525;-61
2022/05/18 04:18:42;;;;;;;18.33;4.45;;;21.50;69.90;;;;;;5038216;28;20100;-60
2022/05/18 04:21:07;;;;;;;13.15;4.55;;;21.60;70.00;;;;;;5036955;28;20040;-62
2022/05/18 04:23:33;;;;;;;13.75;4.63;;;21.60;70.10;;;;;;5036350;28;20047;-61
2022/05/18 04:25:58;;;;;;;8.50;3.97;;;21.60;70.10;;;;;;5038730;28;20041;-62
2022/05/18 04:28:24;;;;;;;9.27;4.53;;;21.50;70.00;;;;;;5039883;28;20388;-62
2022/05/18 04:30:50;;;;;;;10.43;4.50;;;21.50;70.00;;;;;;5037415;28;20582;-62
2022/05/18 04:33:20;;;;;;;13.68;4.93;;;21.50;70.10;;;;;;5039163;28;20091;-63
2022/05/18 04:35:48;;;;;;;13.95;4.57;;;21.50;70.10;;;;;;5036392;28;20052;-62
2022/05/18 04:38:14;;;;;;;17.50;4.65;;;21.50;70.20;;;;;;5039447;28;20166;-59
2022/05/18 04:40:39;;;;;;;8.85;4.22;;;21.50;70.20;;;;;;5039576;28;20109;-61
2022/05/18 04:43:05;;;;;;;102.63;11.98;;;21.40;70.20;;;;;;5040528;28;20113;-60
2022/05/18 04:45:31;;;;;;;70.40;11.45;;;21.40;70.20;;;;;;5035662;28;20497;-62
2022/05/18 04:47:56;;;;;;;63.75;10.13;;;21.40;70.20;;;;;;5036665;28;20049;-61
2022/05/18 04:50:22;;;;;;;59.33;8.63;;;21.40;70.40;;;;;;5036910;28;20163;-61
2022/05/18 04:52:48;;;;;;;54.35;8.30;;;21.40;70.40;;;;;;5034289;28;20024;-60
2022/05/18 04:55:13;;;;;;;34.03;7.07;;;21.40;70.50;;;;;;5036351;28;20055;-61
2022/05/18 04:57:39;;;;;;;34.78;7.07;;;21.40;70.40;;;;;;5018982;28;20056;-62
2022/05/18 05:00:06;;;;;;;32.90;6.45;;;21.30;70.30;;;;;;5035080;28;20039;-62
2022/05/18 05:02:33;;;;;;;24.92;6.57;;;21.40;70.50;;;;;;5023011;28;20021;-61
2022/05/18 05:04:59;;;;;;;34.13;6.80;;;21.30;70.40;;;;;;5037632;28;20068;-61
2022/05/18 05:07:24;;;;;;;31.70;6.60;;;21.20;70.40;;;;;;5038448;28;20075;-60
2022/05/18 05:09:50;;;;;;;36.55;6.28;;;21.30;70.40;;;;;;5038288;28;20437;-60
2022/05/18 05:12:16;;;;;;;31.98;6.40;;;21.30;70.50;;;;;;5020264;28;20103;-60
2022/05/18 05:14:41;;;;;;;24.20;6.53;;;21.30;70.60;;;;;;5020615;28;20195;-61
2022/05/18 05:17:07;;;;;;;21.08;6.30;;;21.20;70.70;;;;;;5039026;28;20032;-62
2022/05/18 05:19:34;;;;;;;27.40;6.43;;;21.30;70.70;;;;;;5036636;28;20033;-61
2022/05/18 05:22:00;;;;;;;23.13;6.18;;;21.20;70.60;;;;;;5023455;28;21004;-62
2022/05/18 05:24:25;;;;;;;26.13;6.43;;;21.20;70.70;;;;;;5042909;28;20703;-62
2022/05/18 05:26:51;;;;;;;23.05;5.93;;;21.20;70.80;;;;;;5043307;28;20551;-60
2022/05/18 05:29:17;;;;;;;18.90;6.55;;;21.20;70.80;;;;;;5041899;28;20039;-61
2022/05/18 05:31:42;;;;;;;16.02;5.65;;;21.30;70.80;;;;;;5042393;28;20112;-62
2022/05/18 05:34:08;;;;;;;25.50;6.13;;;21.30;70.80;;;;;;5042792;28;20165;-62
2022/05/18 05:36:33;;;;;;;17.60;5.78;;;21.20;70.90;;;;;;5041352;28;20625;-61
2022/05/18 05:38:59;;;;;;;21.40;5.75;;;21.30;70.90;;;;;;5039020;28;20053;-60
2022/05/18 05:41:26;;;;;;;26.30;5.90;;;21.30;71.10;;;;;;5038320;28;20017;-62
2022/05/18 05:43:53;;;;;;;25.25;5.88;;;21.20;70.90;;;;;;5035520;28;20928;-62
2022/05/18 05:46:18;;;;;;;29.33;5.68;;;21.20;71.20;;;;;;5041232;28;20198;-61
2022/05/18 05:48:45;;;;;;;16.13;5.40;;;21.20;71.10;;;;;;5041427;28;20108;-63
2022/05/18 05:51:13;;;;;;;16.80;5.40;;;21.20;71.20;;;;;;5040926;28;20029;-60
2022/05/18 05:53:39;;;;;;;24.13;5.82;;;21.20;71.50;;;;;;5039242;28;20026;-61
2022/05/18 05:56:06;;;;;;;15.75;4.80;;;21.20;71.60;;;;;;5043537;28;20028;-61
2022/05/18 05:58:33;;;;;;;14.57;5.25;;;21.20;71.40;;;;;;5041750;28;20044;-62
2022/05/18 06:00:59;;;;;;;12.65;4.80;;;21.20;71.40;;;;;;5042067;28;20124;-61
2022/05/18 06:03:25;;;;;;;16.83;5.30;;;21.20;71.60;;;;;;5023402;28;20094;-60
2022/05/18 06:05:51;;;;;;;16.30;4.93;;;21.20;71.80;;;;;;5023587;28;20060;-61
2022/05/18 06:08:16;;;;;;;11.80;3.97;;;21.10;72.10;;;;;;5041158;28;20473;-62
2022/05/18 06:10:42;;;;;;;11.60;4.07;;;21.10;72.40;;;;;;5042288;28;20052;-60
2022/05/18 06:13:08;;;;;;;17.25;5.18;;;21.00;72.50;;;;;;5042307;28;20033;-60
2022/05/18 06:15:34;;;;;;;9.95;3.63;;;20.90;72.50;;;;;;5026105;28;20564;-63
2022/05/18 06:17:59;;;;;;;14.10;4.88;;;20.90;72.70;;;;;;5020179;28;20136;-60
2022/05/18 06:20:25;;;;;;;13.45;4.30;;;20.90;72.60;;;;;;5033651;28;20101;-62
2022/05/18 06:22:50;;;;;;;8.30;3.92;;;21.00;72.70;;;;;;5038151;28;20147;-62
2022/05/18 06:25:18;;;;;;;12.77;3.97;;;21.00;73.40;;;;;;5022877;28;20033;-60
2022/05/18 06:27:43;;;;;;;10.57;4.32;;;21.00;72.60;;;;;;5017380;28;20455;-60
2022/05/18 06:30:10;;;;;;;8.48;4.43;;;21.00;72.70;;;;;;5037329;28;20147;-61
2022/05/18 06:32:35;;;;;;;9.13;4.03;;;21.00;72.70;;;;;;5040071;28;20041;-61
2022/05/18 06:35:01;;;;;;;7.63;4.05;;;21.00;72.80;;;;;;5031247;28;20044;-61
2022/05/18 06:37:26;;;;;;;16.55;4.53;;;21.00;73.00;;;;;;5025562;28;20440;-63
2022/05/18 06:39:52;;;;;;;12.30;4.20;;;21.00;73.20;;;;;;5032130;28;20041;-63
2022/05/18 06:42:17;;;;;;;7.57;4.53;;;21.00;73.30;;;;;;5037590;28;20078;-62
2022/05/18 06:44:44;;;;;;;8.48;4.05;;;21.00;73.30;;;;;;5029485;28;20075;-61
2022/05/18 06:47:09;;;;;;;14.23;4.40;;;21.00;73.40;;;;;;5036587;28;20388;-61
2022/05/18 06:49:35;;;;;;;13.10;4.18;;;21.00;73.40;;;;;;5038740;28;20120;-61
2022/05/18 06:52:00;;;;;;;19.10;4.63;;;21.00;73.60;;;;;;5035615;28;20045;-61
2022/05/18 06:54:26;;;;;;;12.00;4.15;;;21.10;73.60;;;;;;5005943;28;20020;-62
2022/05/18 06:56:51;;;;;;;15.68;4.22;;;21.00;73.60;;;;;;5041017;28;20094;-62
2022/05/18 06:59:19;;;;;;;8.88;4.00;;;21.00;73.60;;;;;;5035058;28;20025;-61
2022/05/18 07:01:44;;;;;;;10.80;4.32;;;21.00;73.60;;;;;;5032965;28;20029;-63
2022/05/18 07:04:10;;;;;;;14.88;4.30;;;21.00;73.60;;;;;;5041559;28;21388;-63
2022/05/18 07:06:41;;;;;;;18.15;5.35;;;21.10;73.70;;;;;;5036219;28;20048;-62
2022/05/18 07:09:08;;;;;;;27.17;5.50;;;21.10;73.70;;;;;;5015389;28;20115;-62
2022/05/18 07:11:37;;;;;;;23.05;4.90;;;21.10;73.80;;;;;;5036257;28;20041;-62
2022/05/18 07:14:03;;;;;;;35.65;6.70;;;21.10;73.80;;;;;;5030702;28;20040;-62
2022/05/18 07:16:29;;;;;;;52.53;8.45;;;21.10;73.80;;;;;;5030905;28;20900;-61
2022/05/18 07:18:55;;;;;;;27.80;6.63;;;21.10;73.90;;;;;;5030209;28;20082;-62
2022/05/18 07:21:21;;;;;;;28.95;6.07;;;21.10;73.80;;;;;;5039558;28;20093;-60
2022/05/18 07:23:47;;;;;;;29.70;6.50;;;21.10;73.90;;;;;;5014953;28;20061;-60
2022/05/18 07:26:13;;;;;;;41.97;7.35;;;21.20;74.00;;;;;;5020228;28;20460;-59
2022/05/18 07:28:39;;;;;;;41.33;6.43;;;21.20;74.10;;;;;;5019649;28;20059;-61
2022/05/18 07:31:05;;;;;;;43.25;7.75;;;21.20;74.10;;;;;;5030573;28;20806;-60
2022/05/18 07:33:30;;;;;;;39.22;6.85;;;21.20;74.20;;;;;;5035244;28;20052;-62
2022/05/18 07:35:56;;;;;;;38.90;6.63;;;21.20;74.20;;;;;;5016814;28;20049;-61
2022/05/18 07:38:23;;;;;;;48.45;7.72;;;21.20;74.20;;;;;;5003199;28;20032;-62
2022/05/18 07:40:49;;;;;;;41.33;5.82;;;21.10;74.00;;;;;;5017297;28;20040;-63
2022/05/18 07:43:17;;;;;;;66.53;8.38;;;21.20;74.00;;;;;;5036283;28;20029;-61
2022/05/18 07:45:42;;;;;;;36.13;6.55;;;21.20;74.10;;;;;;5003020;28;20025;-61
2022/05/18 07:48:08;;;;;;;33.53;6.53;;;21.30;74.10;;;;;;5031758;28;20048;-62
2022/05/18 07:50:33;;;;;;;241.82;25.88;;;21.20;74.00;;;;;;5031758;28;20637;-63
2022/05/18 07:52:59;;;;;;;53.30;8.02;;;21.20;74.30;;;;;;5026560;28;20068;-62
2022/05/18 07:55:26;;;;;;;44.17;7.45;;;21.30;74.20;;;;;;5033526;28;20445;-61
2022/05/18 07:57:52;;;;;;;54.92;8.15;;;21.20;73.80;;;;;;5017077;28;20028;-60
2022/05/18 08:00:17;;;;;;;53.40;7.43;;;21.30;74.00;;;;;;5013883;28;20063;-61
2022/05/18 08:02:43;;;;;;;58.58;8.10;;;21.20;73.90;;;;;;5032978;28;20059;-61
2022/05/18 08:05:09;;;;;;;51.70;8.15;;;21.30;74.00;;;;;;5025493;28;20048;-62
2022/05/18 08:07:34;;;;;;;48.55;7.78;;;21.30;74.10;;;;;;5033631;28;20035;-62
2022/05/18 08:15:29;;;;;;;53.00;8.38;;;21.40;74.20;;;;;;5027204;28;20048;-60
2022/05/18 08:17:55;;;;;;;51.67;8.00;;;21.40;74.10;;;;;;5036271;28;20033;-62
2022/05/18 08:20:21;;;;;;;51.78;8.02;;;21.40;74.10;;;;;;5030398;28;20036;-62
2022/05/18 08:22:47;;;;;;;57.42;9.10;;;21.40;73.80;;;;;;5033411;28;20094;-60
2022/05/18 08:25:12;;;;;;;54.60;8.00;;;21.50;73.90;;;;;;5030854;28;20041;-61
2022/05/18 08:27:41;;;;;;;47.15;7.85;;;21.50;73.80;;;;;;5032572;28;20021;-62
2022/05/18 08:30:08;;;;;;;63.85;9.70;;;21.50;73.80;;;;;;5031986;28;20052;-63
2022/05/18 08:32:33;;;;;;;68.43;9.93;;;21.60;74.00;;;;;;5026524;28;20032;-60
2022/05/18 08:34:59;;;;;;;55.83;8.68;;;21.50;73.70;;;;;;5023488;28;20042;-61
2022/05/18 08:37:25;;;;;;;58.70;8.57;;;21.50;73.80;;;;;;5022491;28;20048;-62
2022/05/18 08:39:51;;;;;;;56.85;8.20;;;21.50;73.90;;;;;;5022369;28;20029;-61
2022/05/18 08:42:17;;;;;;;53.15;9.75;;;21.50;73.90;;;;;;5023580;28;20040;-62
2022/05/18 08:44:43;;;;;;;80.32;9.85;;;21.50;73.90;;;;;;5012634;28;20124;-61
2022/05/18 08:47:09;;;;;;;56.25;8.55;;;21.60;74.10;;;;;;5029126;28;20032;-62
2022/05/18 08:49:57;;;;;;;45.03;7.70;;;21.60;73.90;;;;;;5037147;28;20082;-61
2022/05/18 08:52:39;;;;;;;77.05;11.32;;;21.60;73.70;;;;;;5038177;28;20298;-62
2022/05/18 08:55:28;;;;;;;61.97;8.20;;;21.60;74.00;;;;;;5027224;28;20053;-62
2022/05/18 08:57:54;;;;;;;62.25;9.73;;;21.70;73.60;;;;;;5013918;28;20041;-61
2022/05/18 09:00:23;;;;;;;78.80;9.63;;;21.80;73.60;;;;;;5000859;28;20033;-62
2022/05/18 09:02:52;;;;;;;84.70;9.75;;;21.70;73.60;;;;;;5017279;28;20111;-63
2022/05/18 09:05:37;;;;;;;49.13;8.77;;;21.80;73.60;;;;;;5016746;28;20041;-62
2022/05/18 09:08:10;;;;;;;226.52;23.10;;;21.80;73.60;;;;;;5006744;28;20063;-61
2022/05/18 09:10:45;;;;;;;95.97;10.80;;;21.80;73.50;;;;;;5021382;28;20075;-61
2022/05/18 09:13:11;;;;;;;;;;;21.80;73.70;;;;;;5015670;28;20033;-59
2022/05/18 09:15:43;;;;;;;41.47;8.07;;;21.90;73.50;;;;;;5034788;28;20599;-60
2022/05/18 09:18:19;;;;;;;44.47;7.60;;;21.90;73.60;;;;;;5034508;28;20033;-61
2022/05/18 09:20:57;;;;;;;46.03;7.25;;;21.90;73.50;;;;;;5037662;28;20028;-61
2022/05/18 09:23:45;;;;;;;47.92;7.43;;;21.90;73.20;;;;;;5033170;28;20124;-61
2022/05/18 09:26:22;;;;;;;91.03;12.05;;;21.90;73.30;;;;;;5033242;28;20056;-61
2022/05/18 09:28:53;;;;;;;76.47;10.57;;;22.00;73.50;;;;;;5039463;28;20052;-62
2022/05/18 09:31:50;;;;;;;47.78;8.43;;;22.00;73.30;;;;;;5034332;28;20370;-63
2022/05/18 09:34:41;;;;;;;63.83;9.77;;;22.00;73.50;;;;;;5034730;28;20037;-62
2022/05/18 09:37:29;;;;;;;68.90;10.50;;;22.10;73.90;;;;;;5031706;28;20025;-63
2022/05/18 09:40:16;;;;;;;49.30;9.57;;;22.10;73.90;;;;;;5023179;28;20025;-61
2022/05/18 09:43:06;;;;;;;62.78;9.95;;;22.20;74.50;;;;;;5028242;28;20145;-61
2022/05/18 09:45:33;;;;;;;45.20;8.40;;;22.20;74.10;;;;;;5015918;28;20040;-62
2022/05/18 09:48:06;;;;;;;55.00;8.55;;;22.20;74.60;;;;;;5032216;28;20128;-61
2022/05/18 09:50:31;;;;;;;45.15;7.78;;;22.20;74.10;;;;;;5005570;28;20136;-60
2022/05/18 09:52:57;;;;;;;62.95;8.95;;;22.30;74.60;;;;;;5033701;28;20121;-61
2022/05/18 09:55:25;;;;;;;52.45;8.30;;;22.30;74.90;;;;;;5007780;28;20071;-62
2022/05/18 09:58:03;;;;;;;30.45;6.93;;;22.20;74.30;;;;;;5019129;28;20033;-62
2022/05/18 10:00:31;;;;;;;55.03;8.27;;;22.40;74.60;;;;;;5035090;28;20040;-60
2022/05/18 10:08:30;;;;;;;36.95;7.78;;;22.50;73.90;;;;;;5015329;28;20048;-61
2022/05/18 10:11:02;;;;;;;30.15;7.07;;;22.60;73.80;;;;;;5025921;28;20505;-61
2022/05/18 10:13:31;;;;;;;44.50;8.02;;;22.60;73.60;;;;;;5014064;28;20129;-60
2022/05/18 10:16:05;;;;;;;47.28;8.05;;;22.60;73.50;;;;;;4999695;28;20055;-61
2022/05/18 10:18:43;;;;;;;41.55;7.22;;;22.70;73.50;;;;;;5027126;28;20025;-62
2022/05/18 10:21:21;;;;;;;37.15;6.80;;;22.70;73.50;;;;;;5035033;28;20676;-62
2022/05/18 10:23:58;;;;;;;40.72;6.93;;;22.80;73.10;;;;;;5029654;28;20034;-62
2022/05/18 10:26:35;;;;;;;35.45;7.07;;;22.80;72.80;;;;;;5033831;28;20033;-61
2022/05/18 10:29:08;;;;;;;30.85;6.63;;;22.90;72.80;;;;;;5034009;28;20025;-62
2022/05/18 10:31:40;;;;;;;32.97;5.38;;;22.90;72.60;;;;;;5022347;28;20043;-62
2022/05/18 10:34:21;;;;;;;28.13;6.63;;;22.90;72.30;;;;;;5028489;28;20048;-62
2022/05/18 10:36:52;;;;;;;42.80;7.18;;;23.00;72.10;;;;;;5029177;28;20037;-62
2022/05/18 10:39:36;;;;;;;38.17;5.90;;;23.10;71.90;;;;;;5034144;28;20049;-61
2022/05/18 10:42:08;;;;;;;31.92;6.10;;;23.10;71.70;;;;;;5031091;28;20570;-62
2022/05/18 10:44:34;;;;;;;39.75;6.53;;;23.10;71.50;;;;;;5022407;28;20151;-61
2022/05/18 10:47:26;;;;;;;28.38;5.60;;;23.20;71.40;;;;;;5019348;28;20025;-61
2022/05/18 10:50:09;;;;;;;28.00;5.95;;;23.30;70.90;;;;;;5030422;28;20037;-60
2022/05/18 10:52:35;;;;;;;33.33;5.88;;;23.40;70.60;;;;;;5016046;28;20044;-62
2022/05/18 10:55:14;;;;;;;24.95;5.20;;;23.40;70.00;;;;;;5012709;28;20333;-63
2022/05/18 10:57:40;;;;;;;17.52;4.28;;;23.50;69.10;;;;;;5025597;28;20032;-61
2022/05/18 11:00:11;;;;;;;21.65;4.55;;;23.70;68.70;;;;;;5007357;28;20145;-61
2022/05/18 11:02:40;;;;;;;19.33;4.82;;;23.70;68.50;;;;;;5007931;28;20416;-62
2022/05/18 11:05:15;;;;;;;26.48;4.60;;;23.80;68.50;;;;;;5029237;28;20029;-61
2022/05/18 11:07:40;;;;;;;19.67;4.43;;;23.90;68.10;;;;;;5027342;28;20107;-61
2022/05/18 11:10:06;;;;;;;16.52;4.15;;;24.00;67.30;;;;;;5011428;28;20293;-62
2022/05/18 11:12:34;;;;;;;27.00;5.03;;;24.10;66.80;;;;;;5028464;28;20434;-60
2022/05/18 11:15:03;;;;;;;24.48;4.32;;;24.20;66.60;;;;;;5015021;28;20095;-62
2022/05/18 11:18:10;;;;;;;23.13;4.63;;;24.20;66.80;;;;;;5009136;28;20092;-62
2022/05/18 11:20:59;;;;;;;;;;;24.30;65.60;;;;;;5031138;28;20037;-62
2022/05/18 11:24:10;;;;;;;22.10;4.90;;;24.40;66.00;;;;;;5018844;28;19909;-62
2022/05/18 11:26:53;;;;;;;21.70;4.10;;;24.50;64.80;;;;;;5015722;28;20045;-61
2022/05/18 11:29:52;;;;;;;17.20;4.43;;;24.80;64.40;;;;;;5014958;28;20060;-60
2022/05/18 11:32:46;;;;;;;23.67;4.25;;;24.80;64.10;;;;;;5018031;28;20051;-62
2022/05/18 11:35:20;;;;;;;19.83;4.53;;;24.90;64.20;;;;;;5026138;28;20476;-61
2022/05/18 11:38:07;;;;;;;26.35;5.00;;;25.00;64.50;;;;;;5032104;28;20037;-61
2022/05/18 11:40:32;;;;;;;19.27;4.22;;;25.10;64.30;;;;;;5010072;28;20028;-61
2022/05/18 11:43:28;;;;;;;37.45;5.68;;;25.20;63.90;;;;;;5024996;28;20154;-62
2022/05/18 11:45:59;;;;;;;40.60;5.95;;;25.30;63.90;;;;;;5031192;28;20045;-62
2022/05/18 11:48:45;;;;;;;32.03;5.05;;;25.40;63.80;;;;;;5029985;28;22036;-61
2022/05/18 11:51:28;;;;;;;28.23;4.43;;;25.50;64.00;;;;;;5026150;28;20028;-62
2022/05/18 11:54:07;;;;;;;18.27;4.28;;;25.60;63.10;;;;;;5022323;28;20101;-61
2022/05/18 11:56:55;;;;;;;32.33;5.35;;;25.60;62.50;;;;;;5005632;28;20708;-61
2022/05/18 11:59:56;;;;;;;32.63;4.90;;;25.70;62.00;;;;;;5011112;28;20041;-61
2022/05/18 12:02:30;;;;;;;18.10;4.13;;;25.80;61.40;;;;;;5020373;28;20065;-60
2022/05/18 12:05:33;;;;;;;40.83;5.05;;;25.90;60.20;;;;;;5016071;28;20521;-60
2022/05/18 12:08:10;;;;;;;32.88;5.13;;;26.00;60.30;;;;;;5031973;28;20028;-62
2022/05/18 12:10:40;;;;;;;20.85;3.88;;;26.00;60.00;;;;;;5030772;28;20029;-60
2022/05/18 12:13:17;;;;;;;43.03;5.60;;;26.20;59.20;;;;;;5022813;28;20064;-61
2022/05/18 12:15:57;;;;;;;45.72;6.72;;;26.20;59.40;;;;;;5008766;28;20109;-60
2022/05/18 12:18:40;;;;;;;43.47;5.28;;;26.30;59.50;;;;;;5023718;28;20057;-61
2022/05/18 12:21:16;;;;;;;38.38;5.50;;;26.40;59.70;;;;;;5010856;28;20039;-62
2022/05/18 12:23:43;;;;;;;38.80;5.22;;;26.50;59.70;;;;;;5012200;28;20132;-61
2022/05/18 12:26:09;;;;;;;40.40;6.07;;;26.60;59.20;;;;;;5031293;28;20059;-60
2022/05/18 12:28:34;;;;;;;49.40;6.13;;;26.60;59.10;;;;;;5029644;28;20017;-62
2022/05/18 12:31:00;;;;;;;19.90;3.47;;;26.70;59.10;;;;;;5024210;28;20100;-61
2022/05/18 12:33:26;;;;;;;24.75;4.13;;;26.80;57.50;;;;;;5010191;28;20041;-61
2022/05/18 12:36:06;;;;;;;13.95;3.05;;;26.80;57.30;;;;;;5014243;28;20114;-62
2022/05/18 12:38:57;;;;;;;49.10;5.95;;;26.90;56.50;;;;;;5030940;28;20033;-61
2022/05/18 12:41:30;;;;;;;50.75;6.80;;;27.00;57.30;;;;;;5032163;28;20032;-62
2022/05/18 12:44:06;;;;;;;38.92;5.13;;;27.00;57.50;;;;;;5013988;28;20036;-62
2022/05/18 12:46:54;;;;;;;55.72;7.25;;;27.10;57.50;;;;;;5006946;28;20037;-62
2022/05/18 12:49:28;;;;;;;51.00;6.82;;;27.20;57.30;;;;;;5027234;28;20036;-62
2022/05/18 12:52:05;;;;;;;57.08;7.25;;;27.20;56.90;;;;;;5028060;28;20045;-62
2022/05/18 12:54:44;;;;;;;51.75;6.95;;;27.30;56.90;;;;;;5029764;28;20033;-62
2022/05/18 12:57:14;;;;;;;69.22;8.60;;;27.40;57.00;;;;;;5012794;28;20056;-61
2022/05/18 13:00:30;;;;;;;113.80;12.27;;;27.50;57.70;;;;;;5022522;28;20067;-61
2022/05/18 13:03:08;;;;;;;94.78;10.35;;;27.60;56.80;;;;;;5028632;28;20508;-61
2022/05/18 13:05:41;;;;;;;39.20;5.53;;;27.80;56.70;;;;;;5021431;28;20116;-63
2022/05/18 13:08:16;;;;;;;50.40;7.70;;;27.90;55.10;;;;;;5032950;28;20037;-61